DLA5LM EDDN-EDDS
Flight info
| Callsign | DLA5LM |
|---|---|
| Flight time | 0h 28m |
| Altitude | 20000 |
| Route | BOLSI1G/28 BOLSI Y166 DKB Z818 GEBNO/N0348F190 T726 LBU |
| Aircraft | E195/M-SDE3GILORVW/S |
Departure
| Time | 2026-05-04 18:51 |
|---|---|
| Airport | Nuremberg Airport (EDDN) |
Arrival
| Time | 2026-05-04 19:19 |
|---|---|
| Airport | Stuttgart Airport (EDDS) |
| Time | Latitude | Longitude | Altitude | Speed | Heading |
|---|---|---|---|---|---|
| 2026-05-04 18:15 | 49.49527 | 11.07660 | 1031 ft | 0 kts | 188° |
| 2026-05-04 18:37 | 49.49538 | 11.07663 | 1032 ft | 4 kts | 187° |
| 2026-05-04 18:37 | 49.49565 | 11.07666 | 1034 ft | 4 kts | 180° |
| 2026-05-04 18:37 | 49.49592 | 11.07664 | 1036 ft | 4 kts | 170° |
| 2026-05-04 18:37 | 49.49600 | 11.07662 | 1036 ft | 2 kts | 167° |
| 2026-05-04 18:39 | 49.49597 | 11.07674 | 1036 ft | 3 kts | 116° |
| 2026-05-04 18:39 | 49.49590 | 11.07735 | 1036 ft | 8 kts | 99° |
| 2026-05-04 18:40 | 49.49579 | 11.07847 | 1037 ft | 13 kts | 98° |
| 2026-05-04 18:40 | 49.49563 | 11.08005 | 1037 ft | 17 kts | 98° |
| 2026-05-04 18:40 | 49.49543 | 11.08209 | 1037 ft | 21 kts | 99° |
| 2026-05-04 18:40 | 49.49565 | 11.08355 | 1041 ft | 11 kts | 20° |
| 2026-05-04 18:41 | 49.49616 | 11.08407 | 1042 ft | 8 kts | 77° |
| 2026-05-04 18:41 | 49.49609 | 11.08509 | 1043 ft | 12 kts | 99° |
| 2026-05-04 18:41 | 49.49594 | 11.08659 | 1044 ft | 17 kts | 97° |
| 2026-05-04 18:41 | 49.49574 | 11.08855 | 1047 ft | 21 kts | 99° |
| 2026-05-04 18:42 | 49.49552 | 11.09083 | 1048 ft | 21 kts | 99° |
| 2026-05-04 18:42 | 49.49533 | 11.09293 | 1051 ft | 15 kts | 97° |
| 2026-05-04 18:42 | 49.49571 | 11.09438 | 1054 ft | 14 kts | 54° |
| 2026-05-04 18:42 | 49.49575 | 11.09447 | 1054 ft | 0 kts | 54° |
| 2026-05-04 18:43 | 49.49583 | 11.09465 | 1054 ft | 5 kts | 53° |
| 2026-05-04 18:44 | 49.49600 | 11.09499 | 1055 ft | 0 kts | 53° |
| 2026-05-04 18:50 | 49.49604 | 11.09506 | 1055 ft | 3 kts | 52° |
| 2026-05-04 18:50 | 49.49630 | 11.09553 | 1056 ft | 8 kts | 41° |
| 2026-05-04 18:50 | 49.49688 | 11.09544 | 1058 ft | 11 kts | 317° |
| 2026-05-04 18:50 | 49.49724 | 11.09297 | 1055 ft | 51 kts | 277° |
| 2026-05-04 18:51 | 49.49808 | 11.08436 | 1043 ft | 112 kts | 278° |
| 2026-05-04 18:51 | 49.49973 | 11.06991 | 1102 ft | 156 kts | 282° |
| 2026-05-04 18:51 | 49.50152 | 11.05291 | 1702 ft | 162 kts | 279° |
| 2026-05-04 18:51 | 49.50277 | 11.03530 | 2602 ft | 172 kts | 279° |
| 2026-05-04 18:52 | 49.50468 | 11.01591 | 3378 ft | 192 kts | 280° |
| 2026-05-04 18:52 | 49.50684 | 10.99469 | 4223 ft | 210 kts | 279° |
| 2026-05-04 18:52 | 49.50911 | 10.97160 | 5164 ft | 222 kts | 278° |
| 2026-05-04 18:52 | 49.51052 | 10.94788 | 6308 ft | 223 kts | 264° |
| 2026-05-04 18:53 | 49.50774 | 10.92452 | 7435 ft | 221 kts | 253° |
| 2026-05-04 18:53 | 49.50338 | 10.90157 | 8424 ft | 231 kts | 250° |
| 2026-05-04 18:53 | 49.49743 | 10.87738 | 8741 ft | 251 kts | 244° |
| 2026-05-04 18:53 | 49.48992 | 10.85248 | 9161 ft | 267 kts | 243° |
| 2026-05-04 18:54 | 49.48195 | 10.82630 | 9867 ft | 271 kts | 243° |
| 2026-05-04 18:54 | 49.47345 | 10.79993 | 10368 ft | 283 kts | 236° |
| 2026-05-04 18:54 | 49.45885 | 10.77905 | 10775 ft | 295 kts | 207° |
| 2026-05-04 18:54 | 49.43900 | 10.77003 | 11450 ft | 299 kts | 194° |
| 2026-05-04 18:55 | 49.41996 | 10.75712 | 12102 ft | 303 kts | 217° |
| 2026-05-04 18:55 | 49.40161 | 10.70001 | 13470 ft | 318 kts | 266° |
| 2026-05-04 18:55 | 49.40100 | 10.66580 | 14139 ft | 321 kts | 262° |
| 2026-05-04 18:56 | 49.39731 | 10.63193 | 14782 ft | 322 kts | 255° |
| 2026-05-04 18:56 | 49.39146 | 10.59860 | 15445 ft | 325 kts | 251° |
| 2026-05-04 18:56 | 49.38408 | 10.56563 | 16094 ft | 327 kts | 248° |
| 2026-05-04 18:56 | 49.37575 | 10.53315 | 16742 ft | 329 kts | 246° |
| 2026-05-04 18:57 | 49.36698 | 10.50068 | 17391 ft | 332 kts | 246° |
| 2026-05-04 18:57 | 49.35781 | 10.46802 | 18061 ft | 335 kts | 244° |
| 2026-05-04 18:57 | 49.34702 | 10.43612 | 18644 ft | 337 kts | 240° |
| 2026-05-04 18:57 | 49.33593 | 10.40428 | 19199 ft | 340 kts | 240° |
| 2026-05-04 18:58 | 49.32457 | 10.37226 | 19710 ft | 344 kts | 240° |
| 2026-05-04 18:58 | 49.31321 | 10.34034 | 19845 ft | 341 kts | 240° |
| 2026-05-04 18:58 | 49.30175 | 10.30823 | 19918 ft | 345 kts | 240° |
| 2026-05-04 18:58 | 49.29038 | 10.27638 | 19952 ft | 345 kts | 240° |
| 2026-05-04 18:59 | 49.27884 | 10.24409 | 19972 ft | 345 kts | 240° |
| 2026-05-04 18:59 | 49.26729 | 10.21179 | 19980 ft | 345 kts | 240° |
| 2026-05-04 18:59 | 49.25573 | 10.17955 | 19967 ft | 345 kts | 240° |
| 2026-05-04 18:59 | 49.24419 | 10.14735 | 19967 ft | 345 kts | 240° |
| 2026-05-04 19:00 | 49.23257 | 10.11500 | 19979 ft | 345 kts | 240° |
| 2026-05-04 19:00 | 49.22488 | 10.09361 | 19974 ft | 345 kts | 240° |
| 2026-05-04 19:00 | 49.21328 | 10.06138 | 19966 ft | 345 kts | 240° |
| 2026-05-04 19:00 | 49.20171 | 10.02927 | 19967 ft | 345 kts | 240° |
| 2026-05-04 19:01 | 49.19011 | 9.99710 | 19972 ft | 345 kts | 240° |
| 2026-05-04 19:01 | 49.17827 | 9.96516 | 19933 ft | 346 kts | 237° |
| 2026-05-04 19:01 | 49.16011 | 9.92506 | 19450 ft | 347 kts | 235° |
| 2026-05-04 19:01 | 49.15105 | 9.90464 | 19209 ft | 351 kts | 231° |
| 2026-05-04 19:02 | 49.13324 | 9.87926 | 18859 ft | 352 kts | 217° |
| 2026-05-04 19:02 | 49.11329 | 9.85754 | 18518 ft | 350 kts | 214° |
| 2026-05-04 19:02 | 49.09313 | 9.83695 | 18164 ft | 348 kts | 213° |
| 2026-05-04 19:02 | 49.07291 | 9.81677 | 17765 ft | 346 kts | 213° |
| 2026-05-04 19:03 | 49.05268 | 9.79677 | 17375 ft | 345 kts | 213° |
| 2026-05-04 19:03 | 49.03261 | 9.77696 | 16984 ft | 344 kts | 213° |
| 2026-05-04 19:03 | 49.01283 | 9.75741 | 16607 ft | 342 kts | 213° |
| 2026-05-04 19:03 | 48.99288 | 9.73763 | 16225 ft | 340 kts | 213° |
| 2026-05-04 19:04 | 48.97310 | 9.71799 | 15856 ft | 339 kts | 213° |
| 2026-05-04 19:04 | 48.95328 | 9.69826 | 15392 ft | 338 kts | 213° |
| 2026-05-04 19:04 | 48.93343 | 9.67954 | 14883 ft | 332 kts | 205° |
| 2026-05-04 19:04 | 48.91123 | 9.67164 | 14389 ft | 328 kts | 180° |
| 2026-05-04 19:05 | 48.88940 | 9.67871 | 13921 ft | 325 kts | 159° |
| 2026-05-04 19:05 | 48.86898 | 9.69300 | 13419 ft | 322 kts | 155° |
| 2026-05-04 19:05 | 48.84911 | 9.70846 | 12897 ft | 318 kts | 154° |
| 2026-05-04 19:05 | 48.82966 | 9.72420 | 12312 ft | 317 kts | 153° |
| 2026-05-04 19:06 | 48.81027 | 9.74010 | 11671 ft | 310 kts | 153° |
| 2026-05-04 19:06 | 48.79193 | 9.75532 | 11035 ft | 291 kts | 153° |
| 2026-05-04 19:06 | 48.77463 | 9.76977 | 10407 ft | 277 kts | 153° |
| 2026-05-04 19:06 | 48.75814 | 9.78366 | 9746 ft | 265 kts | 153° |
| 2026-05-04 19:07 | 48.74228 | 9.79705 | 9066 ft | 256 kts | 153° |
| 2026-05-04 19:07 | 48.72703 | 9.80978 | 8410 ft | 250 kts | 153° |
| 2026-05-04 19:07 | 48.71194 | 9.82220 | 7766 ft | 244 kts | 153° |
| 2026-05-04 19:07 | 48.69704 | 9.83424 | 7142 ft | 240 kts | 153° |
| 2026-05-04 19:08 | 48.68231 | 9.84593 | 6513 ft | 237 kts | 153° |
| 2026-05-04 19:08 | 48.66768 | 9.85736 | 5872 ft | 235 kts | 153° |
| 2026-05-04 19:08 | 48.65312 | 9.86847 | 5247 ft | 235 kts | 153° |
| 2026-05-04 19:08 | 48.63773 | 9.87629 | 4617 ft | 237 kts | 176° |
| 2026-05-04 19:09 | 48.62187 | 9.87081 | 4149 ft | 233 kts | 212° |
| 2026-05-04 19:09 | 48.61138 | 9.85333 | 4063 ft | 231 kts | 248° |
| 2026-05-04 19:09 | 48.60953 | 9.82984 | 4034 ft | 225 kts | 284° |
| 2026-05-04 19:09 | 48.61715 | 9.80982 | 4018 ft | 221 kts | 321° |
| 2026-05-04 19:10 | 48.62986 | 9.79719 | 4051 ft | 221 kts | 331° |
| 2026-05-04 19:10 | 48.64324 | 9.78595 | 4067 ft | 219 kts | 333° |
| 2026-05-04 19:10 | 48.65682 | 9.77498 | 4064 ft | 221 kts | 333° |
| 2026-05-04 19:10 | 48.67040 | 9.76421 | 4031 ft | 219 kts | 334° |
| 2026-05-04 19:11 | 48.68396 | 9.75358 | 3993 ft | 219 kts | 334° |
| 2026-05-04 19:11 | 48.69732 | 9.74306 | 3981 ft | 219 kts | 334° |
| 2026-05-04 19:11 | 48.71088 | 9.73238 | 3978 ft | 220 kts | 334° |
| 2026-05-04 19:11 | 48.72449 | 9.72156 | 4000 ft | 221 kts | 334° |
| 2026-05-04 19:12 | 48.73805 | 9.71081 | 3993 ft | 220 kts | 334° |
| 2026-05-04 19:12 | 48.76524 | 9.68902 | 4003 ft | 221 kts | 333° |
| 2026-05-04 19:12 | 48.77845 | 9.67706 | 3989 ft | 223 kts | 319° |
| 2026-05-04 19:13 | 48.78654 | 9.65715 | 3988 ft | 225 kts | 285° |
| 2026-05-04 19:13 | 48.78573 | 9.63383 | 4004 ft | 229 kts | 249° |
| 2026-05-04 19:13 | 48.77618 | 9.61459 | 4030 ft | 231 kts | 221° |
| 2026-05-04 19:13 | 48.76400 | 9.59885 | 4040 ft | 230 kts | 228° |
| 2026-05-04 19:14 | 48.75626 | 9.57823 | 4017 ft | 221 kts | 254° |
| 2026-05-04 19:14 | 48.75267 | 9.55613 | 3986 ft | 209 kts | 256° |
| 2026-05-04 19:14 | 48.74856 | 9.53566 | 3968 ft | 201 kts | 254° |
| 2026-05-04 19:14 | 48.74473 | 9.51563 | 3968 ft | 194 kts | 256° |
| 2026-05-04 19:15 | 48.74129 | 9.49644 | 3940 ft | 184 kts | 256° |
| 2026-05-04 19:15 | 48.73778 | 9.47792 | 3983 ft | 183 kts | 256° |
| 2026-05-04 19:15 | 48.73430 | 9.45920 | 4059 ft | 184 kts | 255° |
| 2026-05-04 19:15 | 48.73086 | 9.44058 | 4208 ft | 181 kts | 255° |
| 2026-05-04 19:16 | 48.72749 | 9.42266 | 4673 ft | 175 kts | 254° |
| 2026-05-04 19:16 | 48.72435 | 9.40583 | 4357 ft | 167 kts | 255° |
| 2026-05-04 19:16 | 48.72105 | 9.38808 | 3607 ft | 179 kts | 257° |
| 2026-05-04 19:16 | 48.71769 | 9.37009 | 3057 ft | 174 kts | 256° |
| 2026-05-04 19:17 | 48.71450 | 9.35308 | 2707 ft | 161 kts | 257° |
| 2026-05-04 19:17 | 48.71157 | 9.33740 | 2466 ft | 151 kts | 257° |
| 2026-05-04 19:17 | 48.70880 | 9.32267 | 2268 ft | 140 kts | 257° |
| 2026-05-04 19:17 | 48.70616 | 9.30862 | 2084 ft | 139 kts | 257° |
| 2026-05-04 19:18 | 48.70354 | 9.29464 | 1906 ft | 139 kts | 257° |
| 2026-05-04 19:18 | 48.70090 | 9.28056 | 1736 ft | 137 kts | 258° |
| 2026-05-04 19:18 | 48.69837 | 9.26700 | 1558 ft | 130 kts | 257° |
| 2026-05-04 19:18 | 48.69585 | 9.25433 | 1351 ft | 122 kts | 258° |
| 2026-05-04 19:19 | 48.69371 | 9.24215 | 1205 ft | 116 kts | 257° |
| 2026-05-04 19:19 | 48.69180 | 9.23246 | 1217 ft | 69 kts | 254° |
| 2026-05-04 19:19 | 48.69093 | 9.22741 | 1225 ft | 39 kts | 256° |
| 2026-05-04 19:19 | 48.69115 | 9.22540 | 1228 ft | 14 kts | 346° |
| 2026-05-04 19:20 | 48.69183 | 9.22512 | 1226 ft | 0 kts | 341° |
| 2026-05-04 19:20 | 48.69191 | 9.22505 | 1226 ft | 3 kts | 333° |
| 2026-05-04 19:20 | 48.69211 | 9.22459 | 1227 ft | 6 kts | 289° |
| 2026-05-04 19:20 | 48.69198 | 9.22390 | 1227 ft | 9 kts | 253° |
| 2026-05-04 19:21 | 48.69178 | 9.22276 | 1229 ft | 13 kts | 254° |
| 2026-05-04 19:21 | 48.69149 | 9.22135 | 1243 ft | 15 kts | 252° |
| 2026-05-04 19:21 | 48.69118 | 9.21969 | 1250 ft | 18 kts | 252° |
| 2026-05-04 19:21 | 48.69085 | 9.21799 | 1243 ft | 15 kts | 255° |
| 2026-05-04 19:22 | 48.69058 | 9.21645 | 1256 ft | 16 kts | 254° |
| 2026-05-04 19:22 | 48.69024 | 9.21468 | 1254 ft | 19 kts | 253° |
| 2026-05-04 19:22 | 48.68985 | 9.21260 | 1260 ft | 22 kts | 255° |
| 2026-05-04 19:22 | 48.68938 | 9.21012 | 1260 ft | 25 kts | 254° |
| 2026-05-04 19:23 | 48.68900 | 9.20818 | 1267 ft | 18 kts | 255° |
| 2026-05-04 19:23 | 48.68935 | 9.20669 | 1268 ft | 15 kts | 313° |
| 2026-05-04 19:23 | 48.69003 | 9.20560 | 1273 ft | 13 kts | 314° |
| 2026-05-04 19:23 | 48.69055 | 9.20471 | 1279 ft | 10 kts | 300° |
| 2026-05-04 19:24 | 48.69054 | 9.20397 | 1280 ft | 6 kts | 254° |
| 2026-05-04 19:24 | 48.69038 | 9.20314 | 1282 ft | 9 kts | 253° |
| 2026-05-04 19:24 | 48.69014 | 9.20183 | 1286 ft | 18 kts | 255° |
| 2026-05-04 19:24 | 48.68959 | 9.19986 | 1291 ft | 18 kts | 237° |
| 2026-05-04 19:25 | 48.68912 | 9.19841 | 1293 ft | 9 kts | 274° |
| 2026-05-04 19:25 | 48.68933 | 9.19786 | 1296 ft | 3 kts | 329° |
| 2026-05-04 19:25 | 48.68940 | 9.19784 | 1296 ft | 1 kts | 347° |
| 2026-05-04 19:25 | 48.68973 | 9.19775 | 1299 ft | 3 kts | 345° |
| 2026-05-04 19:26 | 48.68974 | 9.19774 | 1299 ft | 0 kts | 344° |